Time;durP1;ratioP1;P1;durP2;ratioP2;P2;SDS_P1;SDS_P2;PMS_P1;PMS_P2;Temp;Humidity;BMP_temperature;BMP_pressure;BME280_temperature;BME280_humidity;BME280_pressure;Samples;Min_cycle;Max_cycle;Signal;HPM_P1;HPM_P2
2022/01/03 00:00:45;;;;;;;15.98;2.50;;;;;;;-146.48;100.00;34376.22;5304519;28;20024;-68
2022/01/03 00:03:17;;;;;;;21.48;2.33;;;;;;;-146.48;100.00;34467.81;5305965;28;20165;-68
2022/01/03 00:05:49;;;;;;;19.67;3.03;;;;;;;-146.48;100.00;34485.72;5305069;28;20017;-68
2022/01/03 00:08:20;;;;;;;17.17;1.98;;;;;;;-146.48;100.00;34517.56;5304800;28;20020;-68
2022/01/03 00:10:52;;;;;;;17.73;2.10;;;;;;;-146.48;100.00;34567.34;5305230;28;20035;-68
2022/01/03 00:13:24;;;;;;;23.33;3.00;;;;;;;-146.48;100.00;34619.09;5305674;28;20020;-68
2022/01/03 00:15:55;;;;;;;19.77;1.63;;;;;;;-146.48;100.00;34664.88;5304109;28;20448;-68
2022/01/03 00:18:27;;;;;;;15.65;2.33;;;;;;;-146.48;100.00;34686.78;5305305;28;20027;-68
2022/01/03 00:21:00;;;;;;;17.45;2.53;;;;;;;-146.48;100.00;34756.47;5305216;28;20036;-68
2022/01/03 00:23:36;;;;;;;24.40;2.53;;;;;;;-146.48;100.00;34756.47;5304689;28;20028;-68
2022/01/03 00:26:08;;;;;;;19.88;1.60;;;;;;;-146.48;100.00;34702.72;5305195;28;20023;-69
2022/01/03 00:28:58;;;;;;;16.98;2.60;;;;;;;-146.48;100.00;34644.97;5303930;28;20471;-68
2022/01/03 00:31:34;;;;;;;22.75;2.55;;;;;;;-146.48;100.00;34513.59;5305433;28;20093;-68
2022/01/03 00:34:07;;;;;;;19.25;2.78;;;;;;;-146.48;100.00;34499.66;5304782;28;20028;-68
2022/01/03 00:36:39;;;;;;;23.00;2.53;;;;;;;-146.48;100.00;34348.38;5303548;28;20031;-68
2022/01/03 00:39:11;;;;;;;20.88;2.17;;;;;;;-146.48;100.00;34216.97;5305150;28;20472;-68
2022/01/03 00:41:46;;;;;;;19.45;2.28;;;;;;;-146.48;100.00;34019.94;5304304;28;20024;-69
2022/01/03 00:44:17;;;;;;;21.10;2.00;;;;;;;-146.48;100.00;33779.09;5304427;28;20103;-69
2022/01/03 00:46:49;;;;;;;17.15;2.45;;;;;;;-146.48;100.00;33651.69;5304070;28;20218;-68
2022/01/03 00:49:20;;;;;;;23.30;2.88;;;;;;;-146.48;100.00;33595.97;5303977;28;20020;-69
2022/01/03 00:51:51;;;;;;;21.50;3.15;;;;;;;-146.48;100.00;33566.13;5304092;28;20505;-69
2022/01/03 00:54:23;;;;;;;23.42;3.63;;;;;;;-146.48;100.00;33452.69;5304866;28;20105;-69
2022/01/03 00:57:02;;;;;;;19.45;2.55;;;;;;;-146.48;100.00;33410.88;5303311;28;20032;-69
2022/01/03 00:59:43;;;;;;;24.83;3.90;;;;;;;-146.48;100.00;33188.00;5304818;28;20024;-69
2022/01/03 01:02:17;;;;;;;17.75;2.45;;;;;;;-146.48;100.00;32981.03;5304687;28;20028;-69
2022/01/03 01:04:52;;;;;;;18.75;2.30;;;;;;;-146.48;100.00;32805.94;5303042;28;20028;-69
2022/01/03 01:07:26;;;;;;;21.10;2.30;;;;;;;-146.48;100.00;32750.22;5304595;28;20039;-69
2022/01/03 01:10:01;;;;;;;21.27;3.25;;;;;;;-146.48;100.00;32740.25;5303674;28;20034;-69
2022/01/03 01:12:34;;;;;;;20.35;2.45;;;;;;;-146.48;100.00;32640.78;5303423;28;20077;-69
2022/01/03 01:15:05;;;;;;;15.93;3.50;;;;;;;-146.48;100.00;32507.47;5303638;28;20050;-69
2022/01/03 01:17:37;;;;;;;19.17;2.50;;;;;;;-146.48;100.00;32551.22;5303374;28;20039;-70
2022/01/03 01:20:09;;;;;;;23.50;3.05;;;;;;;-146.48;100.00;32600.97;5304423;28;20365;-69
2022/01/03 01:22:42;;;;;;;22.25;3.42;;;;;;;-146.48;100.00;32660.66;5303480;28;20036;-69
2022/01/03 01:27:49;;;;;;;19.63;3.28;;;;;;;-146.48;100.00;32720.38;5303450;28;20066;-70
2022/01/03 01:30:24;;;;;;;22.20;2.97;;;;;;;-146.48;100.00;32815.88;5304181;28;20024;-69
2022/01/03 01:33:26;;;;;;;23.50;2.53;;;;;;;-146.48;100.00;32951.19;5302573;28;20077;-69
2022/01/03 01:35:59;;;;;;;15.48;1.55;;;;;;;-146.48;100.00;32991.00;5301892;28;20466;-69
2022/01/03 01:38:34;;;;;;;20.30;2.67;;;;;;;-146.48;100.00;32951.19;5303310;28;20024;-69
2022/01/03 01:41:07;;;;;;;23.17;3.20;;;;;;;-146.48;100.00;33080.53;5303452;28;20173;-69
2022/01/03 01:43:44;;;;;;;22.05;2.70;;;;;;;-146.48;100.00;33197.94;5303174;28;20043;-69
2022/01/03 01:46:18;;;;;;;23.20;3.28;;;;;;;-146.48;100.00;33369.09;5302779;28;20047;-69
2022/01/03 01:48:51;;;;;;;18.48;3.15;;;;;;;-146.48;100.00;33430.78;5303177;28;20056;-69
2022/01/03 01:51:24;;;;;;;26.17;4.10;;;;;;;-146.48;100.00;33400.94;5303732;28;20020;-69
2022/01/03 01:53:56;;;;;;;20.13;3.20;;;;;;;-146.48;100.00;33492.47;5302223;28;20032;-69
2022/01/03 01:56:49;;;;;;;21.60;2.25;;;;;;;-146.48;100.00;33615.88;5303508;28;20043;-69
2022/01/03 01:59:38;;;;;;;28.50;2.83;;;;;;;-146.48;100.00;33787.03;5303407;28;20031;-69
2022/01/03 02:02:14;;;;;;;20.35;2.60;;;;;;;-146.48;100.00;33848.75;5303641;28;20059;-69
2022/01/03 02:04:46;;;;;;;20.45;2.42;;;;;;;-146.48;100.00;33970.16;5302398;28;20032;-69
2022/01/03 02:07:26;;;;;;;18.05;2.05;;;;;;;-146.48;100.00;34015.94;5302454;28;20035;-69
2022/01/03 02:10:09;;;;;;;15.85;2.20;;;;;;;-146.48;100.00;34216.97;5302817;28;20544;-70
2022/01/03 02:12:42;;;;;;;22.08;2.55;;;;;;;-146.48;100.00;34326.47;5302787;28;20480;-70
2022/01/03 02:15:16;;;;;;;15.38;1.73;;;;;;;-146.48;100.00;34354.34;5302238;28;20103;-69
2022/01/03 02:17:48;;;;;;;22.88;2.45;;;;;;;-146.48;100.00;34481.75;5302531;28;20024;-69
2022/01/03 02:20:23;;;;;;;21.38;1.83;;;;;;;-146.48;100.00;34629.06;5303083;28;20035;-68
2022/01/03 02:22:55;;;;;;;23.92;3.25;;;;;;;-146.48;100.00;34692.75;5301729;28;20038;-68
2022/01/03 02:25:26;;;;;;;22.33;2.50;;;;;;;-146.48;100.00;34754.47;5303126;28;20472;-68
2022/01/03 02:27:59;;;;;;;22.48;2.35;;;;;;;-146.48;100.00;34897.81;5301776;28;20031;-68
2022/01/03 02:30:31;;;;;;;20.30;3.10;;;;;;;-146.48;100.00;34931.66;5303244;28;20036;-68
2022/01/03 02:33:04;;;;;;;18.75;2.63;;;;;;;-146.48;100.00;34991.38;5302600;28;20376;-68
2022/01/03 02:35:39;;;;;;;12.85;1.63;;;;;;;-146.48;100.00;35144.69;5302228;28;20071;-67
2022/01/03 02:38:12;;;;;;;15.98;2.38;;;;;;;-146.48;100.00;35218.38;5302927;28;20028;-70
2022/01/03 02:40:44;;;;;;;20.60;2.60;;;;;;;-146.48;100.00;35268.16;5302564;28;20479;-70
2022/01/03 02:43:15;;;;;;;22.83;3.10;;;;;;;-146.48;100.00;35365.72;5302067;28;20028;-69
2022/01/03 02:45:46;;;;;;;22.05;2.47;;;;;;;-146.48;100.00;35401.56;5302339;28;20411;-69
2022/01/03 02:48:22;;;;;;;19.75;3.28;;;;;;;-146.48;100.00;35423.44;5302886;28;20029;-68
2022/01/03 02:50:53;;;;;;;21.90;2.63;;;;;;;-146.48;100.00;35327.88;5301409;28;20073;-68
2022/01/03 02:53:25;;;;;;;23.27;2.42;;;;;;;-146.48;100.00;35351.78;5303067;28;20024;-68
2022/01/03 02:55:56;;;;;;;19.98;1.92;;;;;;;-146.48;100.00;35363.72;5301484;28;20032;-68
2022/01/03 02:58:27;;;;;;;23.00;2.97;;;;;;;-146.48;100.00;35363.72;5302916;28;20036;-68
2022/01/03 03:00:59;;;;;;;26.20;3.17;;;;;;;-146.48;100.00;35385.63;5302149;28;20154;-68
2022/01/03 03:03:30;;;;;;;17.13;1.67;;;;;;;-146.48;100.00;35419.47;5301875;28;20031;-69
2022/01/03 03:06:02;;;;;;;20.42;3.28;;;;;;;-146.48;100.00;35435.41;5302314;28;20115;-69
2022/01/03 03:08:33;;;;;;;19.05;2.20;;;;;;;-146.48;100.00;35503.09;5302581;28;20027;-69
2022/01/03 03:11:04;;;;;;;20.17;2.22;;;;;;;-146.48;100.00;35527.00;5301388;28;20483;-69
2022/01/03 03:13:35;;;;;;;23.15;3.05;;;;;;;-146.48;100.00;35552.88;5302711;28;20173;-68
2022/01/03 03:16:07;;;;;;;25.08;3.05;;;;;;;-146.48;100.00;35568.81;5302249;28;20032;-68
2022/01/03 03:18:43;;;;;;;24.42;2.90;;;;;;;-146.48;100.00;35680.31;5304420;28;20023;-68
2022/01/03 03:21:14;;;;;;;27.15;2.58;;;;;;;-146.48;100.00;35750.03;5306673;28;20028;-68
2022/01/03 03:23:46;;;;;;;21.23;2.65;;;;;;;-146.48;100.00;35720.16;5305918;28;20158;-68
2022/01/03 03:26:17;;;;;;;18.90;2.72;;;;;;;-146.48;100.00;35732.09;5305672;28;20028;-68
2022/01/03 03:28:48;;;;;;;24.08;2.35;;;;;;;-146.48;100.00;35646.47;5306015;28;20032;-68
2022/01/03 03:31:20;;;;;;;24.98;2.47;;;;;;;-146.48;100.00;35560.84;5305661;28;20558;-68
2022/01/03 03:33:51;;;;;;;21.13;2.80;;;;;;;-146.48;100.00;35441.38;5305479;28;20371;-68
2022/01/03 03:36:22;;;;;;;28.65;3.08;;;;;;;-146.48;100.00;35407.53;5306033;28;20062;-68
2022/01/03 03:38:53;;;;;;;27.95;3.83;;;;;;;-146.48;100.00;35363.72;5304799;28;20486;-69
2022/01/03 03:41:26;;;;;;;21.95;1.80;;;;;;;-146.48;100.00;35317.91;5306363;28;20066;-69
2022/01/03 03:43:58;;;;;;;22.55;3.10;;;;;;;-146.48;100.00;35302.00;5305816;28;20032;-68
2022/01/03 03:46:29;;;;;;;21.08;2.95;;;;;;;-146.48;100.00;35278.09;5305137;28;20048;-68
2022/01/03 03:49:00;;;;;;;23.67;3.08;;;;;;;-146.48;100.00;35162.63;5305461;28;20035;-68
2022/01/03 03:51:35;;;;;;;25.52;3.45;;;;;;;-146.48;100.00;35150.66;5305999;28;20020;-68
2022/01/03 03:54:06;;;;;;;21.38;3.63;;;;;;;-146.48;100.00;35216.38;5304734;28;20028;-69
2022/01/03 03:56:37;;;;;;;24.00;2.63;;;;;;;-146.48;100.00;35341.81;5305460;28;20085;-70
2022/01/03 03:59:08;;;;;;;24.65;2.53;;;;;;;-146.48;100.00;35365.72;5305177;28;20032;-69
2022/01/03 04:01:40;;;;;;;22.50;3.05;;;;;;;-146.48;100.00;35385.63;5305115;28;20024;-69
2022/01/03 04:04:11;;;;;;;22.42;3.22;;;;;;;-146.48;100.00;35453.31;5306014;28;20057;-69
2022/01/03 04:06:42;;;;;;;30.48;3.10;;;;;;;-146.48;100.00;35499.13;5304492;28;20036;-69
2022/01/03 04:09:14;;;;;;;20.77;1.98;;;;;;;-146.48;100.00;35540.94;5305645;28;20032;-68
2022/01/03 04:11:45;;;;;;;24.38;3.00;;;;;;;-146.48;100.00;35574.78;5305193;28;20031;-69
2022/01/03 04:14:16;;;;;;;19.48;2.80;;;;;;;-146.48;100.00;35612.63;5304696;28;20036;-69
2022/01/03 04:16:48;;;;;;;31.70;3.97;;;;;;;-146.48;100.00;35602.66;5305052;28;20032;-69
2022/01/03 04:19:19;;;;;;;24.52;3.45;;;;;;;-146.48;100.00;35666.38;5305567;28;20036;-69
2022/01/03 04:21:51;;;;;;;22.00;2.30;;;;;;;-146.48;100.00;35636.50;5303962;28;20024;-68
2022/01/03 04:24:22;;;;;;;26.80;3.22;;;;;;;-146.48;100.00;35628.56;5305272;28;20028;-69
2022/01/03 04:26:53;;;;;;;20.42;2.97;;;;;;;-146.48;100.00;35527.00;5304706;28;20032;-69
2022/01/03 04:29:25;;;;;;;25.05;2.85;;;;;;;-146.48;100.00;35453.31;5303810;28;20034;-69
2022/01/03 04:31:57;;;;;;;28.40;3.40;;;;;;;-146.48;100.00;35365.72;5304821;28;20418;-68
2022/01/03 04:34:28;;;;;;;24.98;2.70;;;;;;;-146.48;100.00;35341.81;5304504;28;20115;-69
2022/01/03 04:36:59;;;;;;;27.88;2.88;;;;;;;-146.48;100.00;35317.91;5304516;28;20049;-69
2022/01/03 04:39:31;;;;;;;25.83;2.78;;;;;;;-146.48;100.00;35337.84;5304916;28;20115;-69
2022/01/03 04:42:02;;;;;;;25.45;3.10;;;;;;;-146.48;100.00;35278.09;5303944;28;20472;-69
2022/01/03 04:44:33;;;;;;;28.52;2.83;;;;;;;-146.48;100.00;35276.09;5304915;28;20103;-69
2022/01/03 04:47:05;;;;;;;21.52;2.60;;;;;;;-146.48;100.00;35288.06;5304121;28;20055;-69
2022/01/03 04:49:36;;;;;;;27.48;2.58;;;;;;;-146.48;100.00;35347.78;5303672;28;20028;-69
2022/01/03 04:52:07;;;;;;;26.27;3.42;;;;;;;-146.48;100.00;35220.34;5304766;28;20040;-69
2022/01/03 04:54:39;;;;;;;26.92;2.80;;;;;;;-146.48;100.00;35186.50;5304145;28;20036;-69
2022/01/03 04:57:10;;;;;;;22.70;2.20;;;;;;;-146.48;100.00;35236.28;5304087;28;20066;-69
2022/01/03 04:59:41;;;;;;;20.00;2.45;;;;;;;-146.48;100.00;35224.34;5304089;28;20028;-69
2022/01/03 05:02:13;;;;;;;21.95;3.20;;;;;;;-146.48;100.00;35114.84;5304509;28;20069;-69
2022/01/03 05:04:44;;;;;;;18.10;2.38;;;;;;;-146.48;100.00;35092.94;5303098;28;20031;-69
2022/01/03 05:07:15;;;;;;;21.88;3.42;;;;;;;-146.48;100.00;34995.38;5304425;28;20452;-69
2022/01/03 05:09:46;;;;;;;20.83;3.30;;;;;;;-146.48;100.00;34899.81;5302929;28;20605;-69
2022/01/03 05:12:18;;;;;;;15.48;2.08;;;;;;;-146.48;100.00;34877.91;5304410;28;20428;-70
2022/01/03 05:14:49;;;;;;;19.73;2.55;;;;;;;-146.48;100.00;34854.00;5303744;28;20090;-68
2022/01/03 05:17:20;;;;;;;28.65;3.10;;;;;;;-146.48;100.00;34812.22;5303602;28;20032;-68
2022/01/03 05:19:52;;;;;;;19.58;2.53;;;;;;;-146.48;100.00;34830.13;5303721;28;20036;-68
2022/01/03 05:22:23;;;;;;;24.73;2.22;;;;;;;-146.48;100.00;34806.25;5304273;28;20035;-68
2022/01/03 05:24:54;;;;;;;21.25;2.53;;;;;;;-146.48;100.00;34889.84;5302781;28;20043;-69
2022/01/03 05:27:25;;;;;;;24.67;3.13;;;;;;;-146.48;100.00;34993.38;5304285;28;20032;-69
2022/01/03 05:29:57;;;;;;;18.73;2.55;;;;;;;-146.48;100.00;34995.38;5303805;28;20088;-68
2022/01/03 05:32:28;;;;;;;19.02;2.75;;;;;;;-146.48;100.00;35033.19;5303236;28;20024;-68
2022/01/03 05:34:59;;;;;;;17.05;1.73;;;;;;;-146.48;100.00;35063.06;5303235;28;20472;-68
2022/01/03 05:37:31;;;;;;;19.55;2.35;;;;;;;-146.48;100.00;35013.28;5303918;28;20356;-68
2022/01/03 05:40:04;;;;;;;26.20;3.00;;;;;;;-146.48;100.00;35053.13;5302029;28;20024;-69
2022/01/03 05:42:35;;;;;;;17.95;1.83;;;;;;;-146.48;100.00;35023.25;5303604;28;20073;-68
2022/01/03 05:45:07;;;;;;;21.77;2.40;;;;;;;-146.48;100.00;34921.72;5302396;28;20043;-69
2022/01/03 05:47:40;;;;;;;23.60;2.65;;;;;;;-146.48;100.00;34945.59;5303185;28;20054;-68
2022/01/03 05:50:11;;;;;;;24.10;2.53;;;;;;;-146.48;100.00;35005.31;5303614;28;20094;-68
2022/01/03 05:52:43;;;;;;;22.80;2.47;;;;;;;-146.48;100.00;34999.34;5302391;28;20479;-68
2022/01/03 05:55:15;;;;;;;20.52;2.38;;;;;;;-146.48;100.00;34937.63;5303331;28;20032;-68
2022/01/03 05:57:46;;;;;;;20.40;2.05;;;;;;;-146.48;100.00;34929.66;5303008;28;20452;-68
2022/01/03 06:00:19;;;;;;;17.75;1.50;;;;;;;-146.48;100.00;34818.19;5302674;28;20017;-71
2022/01/03 06:02:55;;;;;;;20.52;2.13;;;;;;;-146.48;100.00;34808.22;5303073;28;20459;-68
2022/01/03 06:08:10;;;;;;;17.30;1.45;;;;;;;-146.48;100.00;34867.94;5302647;28;20479;-68
2022/01/03 06:10:41;;;;;;;18.40;1.83;;;;;;;-146.48;100.00;34937.63;5302630;28;20024;-68
2022/01/03 06:13:13;;;;;;;19.95;2.17;;;;;;;-146.48;100.00;34933.66;5302553;28;20455;-69
2022/01/03 06:15:46;;;;;;;23.73;1.70;;;;;;;-146.48;100.00;34989.41;5302825;28;20406;-68
2022/01/03 06:18:17;;;;;;;19.23;1.60;;;;;;;-146.48;100.00;35079.00;5302974;28;20043;-69
2022/01/03 06:20:49;;;;;;;24.08;2.55;;;;;;;-146.48;100.00;35228.31;5301824;28;20387;-69
2022/01/03 06:23:21;;;;;;;19.88;1.73;;;;;;;-146.48;100.00;35290.03;5302575;28;20035;-69
2022/01/03 06:25:52;;;;;;;18.95;2.17;;;;;;;-146.48;100.00;35425.44;5302651;28;20032;-69
2022/01/03 06:28:23;;;;;;;19.23;1.80;;;;;;;-146.48;100.00;35513.06;5302385;28;20139;-69
2022/01/03 06:30:54;;;;;;;29.08;3.22;;;;;;;-146.48;100.00;35670.38;5302435;28;20020;-70
2022/01/03 06:33:26;;;;;;;23.30;2.55;;;;;;;-146.48;100.00;35797.81;5303010;28;20028;-69
2022/01/03 06:35:57;;;;;;;21.20;2.00;;;;;;;-146.48;100.00;35945.19;5301789;28;20039;-69
2022/01/03 06:38:28;;;;;;;16.75;1.63;;;;;;;-146.48;100.00;35983.00;5303150;28;20028;-69
2022/01/03 06:41:00;;;;;;;15.90;2.75;;;;;;;-146.48;100.00;36070.63;5301654;28;20024;-69
2022/01/03 06:43:31;;;;;;;16.63;1.27;;;;;;;-146.48;100.00;36192.13;5302940;28;20020;-69
2022/01/03 06:46:02;;;;;;;16.75;1.30;;;;;;;-146.48;100.00;36231.94;5302016;28;20117;-69
2022/01/03 06:48:34;;;;;;;24.40;3.22;;;;;;;-146.48;100.00;36431.13;5302076;28;20375;-69
2022/01/03 06:51:05;;;;;;;15.43;1.67;;;;;;;-146.48;100.00;36510.78;5302785;28;20062;-69
2022/01/03 06:53:36;;;;;;;15.00;1.92;;;;;;;-146.48;100.00;36554.59;5306859;28;20027;-70
2022/01/03 06:56:09;;;;;;;16.75;1.45;;;;;;;-146.48;100.00;36678.09;5306070;28;20115;-69
2022/01/03 06:58:42;;;;;;;15.77;1.55;;;;;;;-146.48;100.00;36970.91;5306398;28;20028;-70
2022/01/03 07:01:14;;;;;;;14.52;1.48;;;;;;;-146.48;100.00;37235.84;5307021;28;20056;-70
2022/01/03 07:03:45;;;;;;;23.02;3.25;;;;;;;-146.48;100.00;37478.88;5305928;28;20482;-69
2022/01/03 07:06:16;;;;;;;23.40;2.22;;;;;;;-146.48;100.00;37678.13;5306899;28;20032;-69
2022/01/03 07:08:48;;;;;;;20.45;1.85;;;;;;;-146.48;100.00;37817.56;5306337;28;20028;-68
2022/01/03 07:11:19;;;;;;;16.85;1.60;;;;;;;-146.48;100.00;37992.91;5306019;28;20028;-68
2022/01/03 07:14:03;;;;;;;17.67;1.02;;;;;;;-146.48;100.00;38140.34;5306383;28;20024;-70
2022/01/03 07:19:24;;;;;;;13.45;1.30;;;;;;;-146.48;100.00;38363.53;5306870;28;20036;-69
2022/01/03 07:21:55;;;;;;;23.33;2.17;;;;;;;-146.48;100.00;38407.38;5305906;28;20036;-70
2022/01/03 07:24:27;;;;;;;17.05;1.63;;;;;;;-146.48;100.00;38427.28;5305882;28;20402;-67
2022/01/03 07:27:02;;;;;;;20.85;3.15;;;;;;;-146.48;100.00;38353.56;5306160;28;20028;-68
2022/01/03 07:29:34;;;;;;;13.75;1.35;;;;;;;-146.48;100.00;38351.56;5306573;28;20020;-68
2022/01/03 07:32:06;;;;;;;16.67;1.50;;;;;;;-146.48;100.00;38429.28;5304765;28;20055;-69
2022/01/03 07:34:38;;;;;;;16.23;1.08;;;;;;;-146.48;100.00;38532.91;5305962;28;20028;-69
2022/01/03 07:37:09;;;;;;;13.32;1.50;;;;;;;-146.48;100.00;38520.97;5305675;28;20036;-69
2022/01/03 07:39:40;;;;;;;16.73;1.40;;;;;;;-146.48;100.00;38483.09;5305006;28;20028;-70
2022/01/03 07:42:11;;;;;;;13.40;1.67;;;;;;;-146.48;100.00;38431.28;5306033;28;20052;-70
2022/01/03 07:44:43;;;;;;;21.10;2.55;;;;;;;-146.48;100.00;38459.19;5304676;28;20074;-70
2022/01/03 07:47:14;;;;;;;19.40;2.25;;;;;;;-146.48;100.00;38429.28;5305823;28;20471;-69
2022/01/03 07:49:45;;;;;;;17.02;1.73;;;;;;;-146.48;100.00;38421.31;5305537;28;20039;-68
2022/01/03 07:52:17;;;;;;;12.40;1.10;;;;;;;-146.48;100.00;38425.31;5305207;28;20060;-69
2022/01/03 07:54:51;;;;;;;17.10;1.85;;;;;;;-146.48;100.00;38369.50;5305188;28;20027;-68
2022/01/03 07:57:23;;;;;;;19.58;1.92;;;;;;;-146.48;100.00;38339.63;5306102;28;20024;-68
2022/01/03 07:59:55;;;;;;;18.98;2.00;;;;;;;-146.48;100.00;38243.97;5304662;28;20028;-68
2022/01/03 08:02:28;;;;;;;17.40;2.03;;;;;;;-146.48;100.00;38261.91;5305457;28;20027;-68
2022/01/03 08:05:00;;;;;;;14.50;1.77;;;;;;;-146.48;100.00;38251.94;5304605;28;20379;-68
2022/01/03 08:07:31;;;;;;;23.95;1.55;;;;;;;-146.48;100.00;38184.19;5304480;28;20028;-68
2022/01/03 08:10:05;;;;;;;24.13;2.53;;;;;;;-146.48;100.00;38166.25;5305134;28;20032;-68
2022/01/03 08:12:37;;;;;;;20.13;2.78;;;;;;;-146.48;100.00;38128.41;5304575;28;20046;-68
2022/01/03 08:15:08;;;;;;;20.55;1.98;;;;;;;-146.48;100.00;38080.59;5305301;28;20032;-68
2022/01/03 08:17:40;;;;;;;15.93;1.77;;;;;;;-146.48;100.00;38138.38;5305128;28;20521;-68
2022/01/03 08:20:11;;;;;;;15.98;1.80;;;;;;;-146.48;100.00;38164.28;5304769;28;20024;-68
2022/01/03 08:22:42;;;;;;;16.02;1.83;;;;;;;-146.48;100.00;38152.31;5304601;28;20024;-68
2022/01/03 08:25:14;;;;;;;16.58;2.10;;;;;;;-146.48;100.00;38158.28;5305436;28;20516;-68
2022/01/03 08:27:45;;;;;;;16.65;2.53;;;;;;;-146.48;100.00;38094.53;5303881;28;20117;-68
2022/01/03 08:30:17;;;;;;;15.57;1.60;;;;;;;-146.48;100.00;38094.53;5305118;28;20107;-69
2022/01/03 08:32:48;;;;;;;25.45;2.30;;;;;;;-146.48;100.00;38146.34;5304787;28;20378;-68
2022/01/03 08:35:19;;;;;;;15.35;1.75;;;;;;;-146.48;100.00;38074.59;5304220;28;20101;-69
2022/01/03 08:37:51;;;;;;;15.65;1.73;;;;;;;-146.48;100.00;38002.88;5304218;28;20028;-69
2022/01/03 08:40:23;;;;;;;19.38;1.65;;;;;;;-146.48;100.00;37945.09;5304918;28;20498;-68
2022/01/03 08:42:54;;;;;;;18.55;1.70;;;;;;;-146.48;100.00;37915.22;5303460;28;20024;-68
2022/01/03 08:45:26;;;;;;;17.27;2.03;;;;;;;-146.48;100.00;37869.38;5304538;28;20506;-68
2022/01/03 08:47:57;;;;;;;15.90;1.55;;;;;;;-146.48;100.00;37710.00;5303579;28;20023;-68
2022/01/03 08:50:29;;;;;;;18.10;1.35;;;;;;;-146.48;100.00;37612.38;5305104;28;20147;-69
2022/01/03 08:53:01;;;;;;;16.13;1.65;;;;;;;-146.48;100.00;37580.50;5290813;28;20042;-69
2022/01/03 08:55:33;;;;;;;18.95;1.80;;;;;;;-146.48;100.00;37482.88;5282441;28;20048;-69
2022/01/03 08:58:04;;;;;;;15.85;1.85;;;;;;;-146.48;100.00;37333.47;5283059;28;20016;-69
2022/01/03 09:00:36;;;;;;;18.35;1.67;;;;;;;-146.48;100.00;37241.81;5282276;28;20039;-68
2022/01/03 09:03:07;;;;;;;17.88;1.83;;;;;;;-146.48;100.00;37281.66;5282225;28;20093;-69
2022/01/03 09:05:39;;;;;;;19.05;1.67;;;;;;;-146.48;100.00;37347.41;5282464;28;20158;-69
2022/01/03 09:08:11;;;;;;;17.65;1.50;;;;;;;-146.48;100.00;37532.69;5283251;28;20026;-69
2022/01/03 09:10:43;;;;;;;14.40;1.48;;;;;;;-146.48;100.00;37530.69;5281971;28;20020;-69
2022/01/03 09:13:15;;;;;;;17.67;2.53;;;;;;;-146.48;100.00;37598.41;5283301;28;20055;-69
2022/01/03 09:15:48;;;;;;;18.83;2.05;;;;;;;-146.48;100.00;37510.75;5280924;28;20083;-69
2022/01/03 09:18:26;;;;;;;19.67;1.35;;;;;;;-146.48;100.00;37307.56;5283110;28;20051;-69
2022/01/03 09:20:57;;;;;;;17.45;2.83;;;;;;;-146.48;100.00;36913.13;5282648;28;20102;-69
2022/01/03 09:23:33;;;;;;;11.80;0.90;;;;;;;-146.48;100.00;36646.22;5282326;28;20052;-69
2022/01/03 09:28:56;;;;;;;14.73;2.20;;;;;;;-146.48;100.00;36092.53;5297023;28;20127;-69
2022/01/03 09:31:36;;;;;;;14.27;1.55;;;;;;;-146.48;100.00;36056.69;5280708;28;20025;-68
2022/01/03 09:34:08;;;;;;;18.88;2.15;;;;;;;-146.48;100.00;35827.69;5281746;28;20028;-69
2022/01/03 09:36:39;;;;;;;20.88;3.00;;;;;;;-146.48;100.00;35656.44;5281185;28;20032;-69
2022/01/03 09:39:10;;;;;;;15.77;1.58;;;;;;;-146.48;100.00;35596.69;5286309;28;20029;-69
2022/01/03 09:42:11;;;;;;;14.68;1.45;;;;;;;-146.48;100.00;35801.78;5281405;28;20025;-67
2022/01/03 09:44:44;;;;;;;17.55;1.20;;;;;;;-146.48;100.00;35748.03;5278498;28;20043;-68
2022/01/03 09:47:18;;;;;;;18.38;2.50;;;;;;;-146.48;100.00;35616.59;5281386;28;20036;-67
2022/01/03 09:49:50;;;;;;;14.23;1.35;;;;;;;-146.48;100.00;35642.50;5280776;28;20021;-69
2022/01/03 09:52:23;;;;;;;13.70;1.42;;;;;;;-146.48;100.00;35644.47;5281243;28;20085;-69
2022/01/03 09:54:55;;;;;;;18.73;1.45;;;;;;;-146.48;100.00;35447.34;5281408;28;20104;-69
2022/01/03 09:57:29;;;;;;;16.40;1.70;;;;;;;-146.48;100.00;35347.78;5282134;28;20032;-69
2022/01/03 10:00:01;;;;;;;22.42;2.13;;;;;;;-146.48;100.00;35363.72;5280863;28;20386;-69
2022/01/03 10:02:33;;;;;;;16.00;1.25;;;;;;;-146.48;100.00;35469.25;5281778;28;20032;-69
2022/01/03 10:05:05;;;;;;;15.75;2.05;;;;;;;-146.48;100.00;35439.38;5280433;28;20379;-69
2022/01/03 10:07:39;;;;;;;24.25;3.28;;;;;;;-146.48;100.00;35519.03;5281634;28;20391;-69
2022/01/03 10:10:12;;;;;;;17.38;1.75;;;;;;;-146.48;100.00;35413.50;5282062;28;20375;-69
2022/01/03 10:12:44;;;;;;;17.38;2.05;;;;;;;-146.48;100.00;35367.69;5280573;28;20112;-70
2022/01/03 10:15:15;;;;;;;17.60;1.75;;;;;;;-146.48;100.00;35431.41;5281836;28;20111;-68
2022/01/03 10:17:47;;;;;;;19.23;2.00;;;;;;;-146.48;100.00;35431.41;5281207;28;20028;-69
2022/01/03 10:20:18;;;;;;;19.95;2.45;;;;;;;-146.48;100.00;35403.53;5281319;28;20104;-68
2022/01/03 10:22:49;;;;;;;21.40;2.60;;;;;;;-146.48;100.00;35319.91;5281357;28;20472;-69
2022/01/03 10:25:23;;;;;;;19.45;2.15;;;;;;;-146.48;100.00;35108.84;5282160;28;20025;-69
2022/01/03 10:28:03;;;;;;;17.45;1.95;;;;;;;-146.48;100.00;35096.91;5280511;28;20169;-68
2022/01/03 10:30:45;;;;;;;19.17;2.22;;;;;;;-146.48;100.00;35194.47;5281879;28;20070;-68
2022/01/03 10:33:19;;;;;;;18.45;2.50;;;;;;;-146.48;100.00;35071.03;5281275;28;20704;-68
2022/01/03 10:35:53;;;;;;;23.70;2.75;;;;;;;-146.48;100.00;34800.25;5281072;28;20043;-68
2022/01/03 10:38:45;;;;;;;20.95;2.47;;;;;;;-146.48;100.00;34704.69;5281909;28;20364;-68
2022/01/03 10:41:20;;;;;;;15.48;1.40;;;;;;;-146.48;100.00;34629.06;5280894;28;20029;-68
2022/01/03 10:43:57;;;;;;;21.00;1.80;;;;;;;-146.48;100.00;34668.88;5280813;28;20024;-68
2022/01/03 10:46:30;;;;;;;18.83;1.65;;;;;;;-146.48;100.00;34641.00;5281534;28;20048;-68
2022/01/03 10:49:13;;;;;;;15.55;1.40;;;;;;;-146.48;100.00;34547.44;5280257;28;20083;-68
2022/01/03 10:51:44;;;;;;;17.63;1.25;;;;;;;-146.48;100.00;34370.25;5281158;28;20028;-69
2022/01/03 10:54:18;;;;;;;16.30;1.80;;;;;;;-146.48;100.00;34312.53;5280761;28;20032;-68
2022/01/03 10:56:50;;;;;;;18.00;1.92;;;;;;;-146.48;100.00;34268.75;5281226;28;20387;-69
2022/01/03 10:59:25;;;;;;;16.40;1.08;;;;;;;-146.48;100.00;34051.78;5281587;28;20071;-70
2022/01/03 11:01:56;;;;;;;13.10;1.23;;;;;;;-146.48;100.00;33705.44;5280310;28;20069;-69
2022/01/03 11:13:18;;;;;;;16.73;2.20;;;;;;;-146.48;100.00;33986.09;5280910;28;20116;-70
2022/01/03 11:15:57;;;;;;;16.27;1.85;;;;;;;-146.48;100.00;34006.00;5280261;28;20435;-71
2022/01/03 11:18:30;;;;;;;15.52;1.27;;;;;;;-146.48;100.00;33816.91;5281607;28;20066;-70
2022/01/03 11:21:24;;;;;;;16.08;1.98;;;;;;;-146.48;100.00;33737.28;5281001;28;20048;-70
2022/01/03 11:24:12;;;;;;;17.75;1.90;;;;;;;-146.48;100.00;33542.25;5280271;28;20349;-70
2022/01/03 11:26:48;;;;;;;21.90;2.72;;;;;;;-146.48;100.00;33562.16;5279649;28;20491;-70
2022/01/03 11:29:19;;;;;;;16.85;1.85;;;;;;;-146.48;100.00;33462.63;5279914;28;20499;-70
2022/01/03 11:31:52;;;;;;;15.90;1.95;;;;;;;-146.48;100.00;33193.97;5280641;28;20025;-70
2022/01/03 11:34:25;;;;;;;14.68;1.15;;;;;;;-146.48;100.00;32867.63;5281650;28;20044;-70
2022/01/03 11:36:58;;;;;;;17.75;2.13;;;;;;;-146.48;100.00;32557.19;5280088;28;20120;-69
2022/01/03 11:39:32;;;;;;;17.17;2.08;;;;;;;-146.48;100.00;32234.88;5283822;28;20097;-69
2022/01/03 11:42:03;;;;;;;18.08;2.08;;;;;;;-146.48;100.00;32298.56;5284566;28;20024;-70
2022/01/03 11:44:35;;;;;;;15.02;1.70;;;;;;;-146.48;100.00;32258.75;5284249;28;20225;-69
2022/01/03 11:47:09;;;;;;;18.25;2.47;;;;;;;-146.48;100.00;32296.56;5284930;28;20036;-68